createdAt,value
2022-10-22T00:01:01.304Z,100968.78
2022-10-22T00:03:29.088Z,100958.34
2022-10-22T00:05:56.993Z,100965.84
2022-10-22T00:08:24.817Z,100960.47
2022-10-22T00:10:53.096Z,100964.72
2022-10-22T00:13:21.417Z,100966.66
2022-10-22T00:15:49.401Z,100956.72
2022-10-22T00:18:17.189Z,100952.44
2022-10-22T00:20:44.816Z,100957.00
2022-10-22T00:23:12.752Z,100960.44
2022-10-22T00:25:40.536Z,100951.94
2022-10-22T00:28:09.345Z,100948.22
2022-10-22T00:30:37.402Z,100921.78
2022-10-22T00:33:05.098Z,100926.66
2022-10-22T00:35:33.346Z,100925.34
2022-10-22T00:38:01.069Z,100912.75
2022-10-22T00:40:28.924Z,100915.25
2022-10-22T00:42:56.675Z,100899.47
2022-10-22T00:45:26.668Z,100888.41
2022-10-22T00:48:02.213Z,100883.41
2022-10-22T00:50:50.922Z,100879.16
2022-10-22T00:53:25.378Z,100882.47
2022-10-22T00:55:54.807Z,100886.84
2022-10-22T00:58:27.161Z,100899.59
2022-10-22T01:00:56.491Z,100908.38
2022-10-22T01:03:24.398Z,100902.34
2022-10-22T01:06:01.053Z,100919.00
2022-10-22T01:08:46.657Z,100907.44
2022-10-22T01:11:32.919Z,100899.09
2022-10-22T01:14:09.479Z,100900.16
2022-10-22T01:16:59.975Z,100885.94
2022-10-22T01:19:57.466Z,100884.03
2022-10-22T01:22:37.255Z,100878.59
2022-10-22T01:25:36.101Z,100872.75
2022-10-22T01:28:40.804Z,100865.06
2022-10-22T01:31:13.300Z,100864.75
2022-10-22T01:33:42.342Z,100847.44
2022-10-22T01:36:12.134Z,100853.94
2022-10-22T01:38:41.806Z,100872.53
2022-10-22T01:41:11.112Z,100871.16
2022-10-22T01:43:38.833Z,100861.47
2022-10-22T01:46:07.939Z,100860.69
2022-10-22T01:49:03.579Z,100854.16
2022-10-22T01:51:54.719Z,100843.28
2022-10-22T01:54:56.921Z,100844.75
2022-10-22T01:57:43.267Z,100832.53
2022-10-22T02:00:14.847Z,100839.13
2022-10-22T02:03:05.976Z,100844.69
2022-10-22T02:05:55.707Z,100826.78
2022-10-22T02:08:31.166Z,100819.50
2022-10-22T02:11:00.580Z,100825.97
2022-10-22T02:13:36.555Z,100830.16
2022-10-22T02:16:08.526Z,100847.22
2022-10-22T02:18:40.648Z,100851.16
2022-10-22T02:21:09.284Z,100845.41
2022-10-22T02:23:37.469Z,100820.06
2022-10-22T02:26:50.070Z,100816.25
2022-10-22T02:29:30.636Z,100815.75
2022-10-22T02:32:00.677Z,100816.72
2022-10-22T02:34:31.997Z,100812.16
2022-10-22T02:37:02.705Z,100803.50
2022-10-22T02:39:32.073Z,100801.56
2022-10-22T02:42:02.117Z,100785.69
2022-10-22T02:44:29.885Z,100779.50
2022-10-22T02:46:58.212Z,100781.13
2022-10-22T02:49:26.013Z,100765.94
2022-10-22T02:51:53.767Z,100763.22
2022-10-22T02:54:21.517Z,100764.72
2022-10-22T02:56:49.368Z,100776.31
2022-10-22T02:59:17.079Z,100786.69
2022-10-22T03:01:44.848Z,100786.34
2022-10-22T03:04:12.664Z,100769.56
2022-10-22T03:06:43.940Z,100768.41
2022-10-22T03:09:11.936Z,100774.59
2022-10-22T03:11:39.674Z,100787.75
2022-10-22T03:14:07.414Z,100774.88
2022-10-22T03:16:35.289Z,100767.53
2022-10-22T03:19:03.382Z,100760.63
2022-10-22T03:21:45.886Z,100765.34
2022-10-22T03:24:18.292Z,100760.97
2022-10-22T03:26:49.909Z,100747.09
2022-10-22T03:29:18.089Z,100734.91
2022-10-22T03:31:45.844Z,100737.16
2022-10-22T03:34:13.687Z,100731.63
2022-10-22T03:36:42.064Z,100725.91
2022-10-22T03:39:13.959Z,100720.84
2022-10-22T03:41:42.046Z,100739.25
2022-10-22T03:44:10.122Z,100747.31
2022-10-22T03:46:37.951Z,100751.16
2022-10-22T03:49:05.669Z,100742.50
2022-10-22T03:51:33.476Z,100736.94
2022-10-22T03:54:01.178Z,100744.63
2022-10-22T03:56:29.168Z,100745.03
2022-10-22T03:58:58.381Z,100743.06
2022-10-22T04:01:27.440Z,100755.88
2022-10-22T04:03:56.005Z,100748.81
2022-10-22T04:06:24.040Z,100750.00
2022-10-22T04:08:51.831Z,100756.38
2022-10-22T04:11:19.638Z,100754.91
2022-10-22T04:13:47.475Z,100751.03
2022-10-22T04:16:18.208Z,100751.81
2022-10-22T04:18:47.287Z,100751.38
2022-10-22T04:21:17.694Z,100750.53
2022-10-22T04:23:50.503Z,100741.22
2022-10-22T04:26:19.936Z,100738.16
2022-10-22T04:28:49.690Z,100728.59
2022-10-22T04:31:22.495Z,100742.56
2022-10-22T04:33:55.027Z,100744.97
2022-10-22T04:36:23.379Z,100748.44
2022-10-22T04:38:57.121Z,100745.81
2022-10-22T04:41:28.214Z,100738.97
2022-10-22T04:43:57.161Z,100729.19
2022-10-22T04:46:26.736Z,100723.75
2022-10-22T04:48:54.525Z,100717.94
2022-10-22T04:51:24.494Z,100717.66
2022-10-22T04:53:52.907Z,100705.78
2022-10-22T04:56:24.919Z,100704.97
2022-10-22T04:59:04.490Z,100716.47
2022-10-22T05:01:37.069Z,100717.63
2022-10-22T05:04:09.321Z,100713.91
2022-10-22T05:06:37.885Z,100711.13
2022-10-22T05:09:08.289Z,100711.44
2022-10-22T05:11:38.505Z,100703.56
2022-10-22T05:14:08.415Z,100713.25
2022-10-22T05:16:39.398Z,100701.06
2022-10-22T05:19:08.189Z,100705.66
2022-10-22T05:21:37.958Z,100716.44
2022-10-22T05:24:06.631Z,100705.31
2022-10-22T05:26:34.698Z,100719.00
2022-10-22T05:29:02.592Z,100715.41
2022-10-22T05:31:30.958Z,100722.31
2022-10-22T05:33:59.755Z,100714.63
2022-10-22T05:36:28.828Z,100722.44
2022-10-22T05:38:57.928Z,100705.78
2022-10-22T05:41:27.747Z,100706.56
2022-10-22T05:43:57.741Z,100710.63
2022-10-22T05:46:28.126Z,100703.84
2022-10-22T05:49:02.395Z,100695.91
2022-10-22T05:51:32.715Z,100702.47
2022-10-22T05:54:02.865Z,100695.50
2022-10-22T05:56:34.563Z,100696.38
2022-10-22T06:01:33.279Z,100730.78
2022-10-22T06:04:02.945Z,100725.34
2022-10-22T06:06:33.096Z,100713.25
2022-10-22T06:09:05.337Z,100726.88
2022-10-22T06:11:35.167Z,100734.75
2022-10-22T06:14:04.801Z,100724.81
2022-10-22T06:16:33.250Z,100740.31
2022-10-22T06:19:04.657Z,100744.91
2022-10-22T06:21:32.921Z,100746.31
2022-10-22T06:24:02.024Z,100739.94
2022-10-22T06:26:30.644Z,100745.41
2022-10-22T06:28:58.671Z,100744.25
2022-10-22T06:31:27.570Z,100746.44
2022-10-22T06:33:56.936Z,100757.31
2022-10-22T06:36:25.244Z,100771.34
2022-10-22T06:38:55.301Z,100780.75
2022-10-22T06:41:27.036Z,100777.16
2022-10-22T06:43:58.007Z,100780.44
2022-10-22T06:46:26.948Z,100780.44
2022-10-22T06:48:59.456Z,100780.16
2022-10-22T06:51:27.828Z,100772.28
2022-10-22T06:53:56.593Z,100767.53
2022-10-22T06:56:26.466Z,100778.91
2022-10-22T06:58:56.578Z,100772.84
2022-10-22T07:01:27.556Z,100767.88
2022-10-22T07:03:55.524Z,100774.31
2022-10-22T07:06:25.080Z,100780.22
2022-10-22T07:08:54.473Z,100785.13
2022-10-22T07:11:33.029Z,100789.44
2022-10-22T07:14:01.304Z,100793.50
2022-10-22T07:16:31.287Z,100800.25
2022-10-22T07:19:01.567Z,100795.88
2022-10-22T07:21:30.163Z,100797.06
2022-10-22T07:23:59.255Z,100797.88
2022-10-22T07:26:30.933Z,100801.09
2022-10-22T07:29:00.488Z,100799.88
2022-10-22T07:31:28.972Z,100796.72
2022-10-22T07:33:57.651Z,100797.31
2022-10-22T07:36:25.570Z,100804.59
2022-10-22T07:38:56.390Z,100811.09
2022-10-22T07:41:24.658Z,100819.00
2022-10-22T07:43:52.686Z,100825.47
2022-10-22T07:46:20.909Z,100829.53
2022-10-22T07:48:48.820Z,100829.41
2022-10-22T07:51:17.247Z,100831.97
2022-10-22T07:53:45.165Z,100826.97
2022-10-22T07:56:14.017Z,100825.34
2022-10-22T07:58:41.799Z,100826.72
2022-10-22T08:01:09.580Z,100817.25
2022-10-22T08:03:37.572Z,100827.41
2022-10-22T08:06:05.975Z,100818.69
2022-10-22T08:08:34.950Z,100822.38
2022-10-22T08:11:03.025Z,100835.66
2022-10-22T08:13:31.514Z,100829.34
2022-10-22T08:16:00.847Z,100834.19
2022-10-22T08:18:29.651Z,100831.31
2022-10-22T08:20:57.767Z,100825.84
2022-10-22T08:23:27.758Z,100832.22
2022-10-22T08:25:57.722Z,100834.09
2022-10-22T08:28:25.991Z,100833.50
2022-10-22T08:30:53.810Z,100835.56
2022-10-22T08:33:22.063Z,100831.88
2022-10-22T08:35:51.704Z,100830.59
2022-10-22T08:38:20.077Z,100835.28
2022-10-22T08:40:53.217Z,100837.19
2022-10-22T08:43:42.874Z,100844.53
2022-10-22T08:46:26.703Z,100841.41
2022-10-22T08:48:58.158Z,100847.91
2022-10-22T08:51:36.240Z,100853.91
2022-10-22T08:54:30.799Z,100849.03
2022-10-22T08:57:16.945Z,100851.38
2022-10-22T09:00:05.210Z,100856.59
2022-10-22T09:03:03.932Z,100865.34
2022-10-22T09:05:37.697Z,100870.94
2022-10-22T09:08:09.414Z,100861.38
2022-10-22T09:10:40.964Z,100861.38
2022-10-22T09:13:14.375Z,100853.88
2022-10-22T09:15:43.794Z,100857.22
2022-10-22T09:18:28.979Z,100856.41
2022-10-22T09:21:12.474Z,100864.06
2022-10-22T09:24:03.410Z,100875.56
2022-10-22T09:26:36.182Z,100868.38
2022-10-22T09:29:05.235Z,100866.53
2022-10-22T09:31:35.530Z,100877.38
2022-10-22T09:34:07.657Z,100846.50
2022-10-22T09:36:36.647Z,100849.44
2022-10-22T09:39:05.314Z,100863.66
2022-10-22T09:41:33.470Z,100873.66
2022-10-22T09:44:01.413Z,100873.84
2022-10-22T09:46:45.964Z,100884.03
2022-10-22T09:49:18.135Z,100881.66
2022-10-22T09:51:53.619Z,100873.03
2022-10-22T09:54:32.199Z,100879.16
2022-10-22T09:57:13.446Z,100891.22
2022-10-22T09:59:43.368Z,100871.03
2022-10-22T10:02:20.407Z,100871.38
2022-10-22T10:05:03.938Z,100880.34
2022-10-22T10:07:33.399Z,100885.56
2022-10-22T10:10:01.312Z,100883.47
2022-10-22T10:12:34.997Z,100890.97
2022-10-22T10:15:28.984Z,100890.53
2022-10-22T10:17:56.875Z,100887.69
2022-10-22T10:20:24.635Z,100888.63
2022-10-22T10:23:18.608Z,100894.47
2022-10-22T10:25:54.252Z,100906.28
2022-10-22T10:42:16.210Z,100896.53
2022-10-22T10:45:07.395Z,100914.22
2022-10-22T10:48:07.057Z,100899.59
2022-10-22T10:50:52.808Z,100907.81
2022-10-22T10:53:54.344Z,100907.38
2022-10-22T10:56:28.746Z,100902.94
2022-10-22T10:59:34.884Z,100902.56
2022-10-22T11:02:21.144Z,100907.47
2022-10-22T11:05:15.688Z,100902.50
2022-10-22T11:07:53.451Z,100914.09
2022-10-22T11:10:45.833Z,100918.03
2022-10-22T11:13:36.956Z,100909.19
2022-10-22T11:16:20.891Z,100910.53
2022-10-22T11:18:53.298Z,100913.69
2022-10-22T11:21:42.450Z,100913.34
2022-10-22T11:24:27.899Z,100910.03
2022-10-22T11:27:28.070Z,100906.38
2022-10-22T11:30:13.010Z,100908.59
2022-10-22T11:32:44.596Z,100910.34
2022-10-22T11:35:21.149Z,100913.56
2022-10-22T11:37:53.057Z,100910.44
2022-10-22T11:40:31.942Z,100912.34
2022-10-22T11:43:10.799Z,100916.06
2022-10-22T11:45:43.220Z,100905.41
2022-10-22T11:48:10.939Z,100915.31
2022-10-22T11:50:45.144Z,100919.75
2022-10-22T11:53:13.095Z,100922.88
2022-10-22T11:55:48.216Z,100915.34
2022-10-22T11:58:39.558Z,100914.44
2022-10-22T12:01:10.284Z,100927.94
2022-10-22T12:03:46.207Z,100921.59
2022-10-22T12:06:15.814Z,100931.16
2022-10-22T12:08:49.516Z,100926.25
2022-10-22T12:11:47.813Z,100925.81
2022-10-22T12:14:28.164Z,100931.09
2022-10-22T12:17:10.223Z,100928.13
2022-10-22T12:19:49.048Z,100938.09
2022-10-22T12:22:36.213Z,100942.38
2022-10-22T12:25:16.512Z,100941.09
2022-10-22T12:27:44.472Z,100952.34
2022-10-22T12:30:23.786Z,100943.97
2022-10-22T12:32:54.877Z,100960.91
2022-10-22T12:35:26.474Z,100957.38
2022-10-22T12:38:13.706Z,100953.25
2022-10-22T12:40:46.045Z,100956.56
2022-10-22T12:43:24.077Z,100948.69
2022-10-22T12:45:53.138Z,100947.06
2022-10-22T12:48:32.199Z,100945.03
2022-10-22T12:51:01.874Z,100942.19
2022-10-22T12:53:35.102Z,100949.28
2022-10-22T12:56:07.947Z,100936.69
2022-10-22T12:58:51.951Z,100929.22
2022-10-22T13:01:20.006Z,100931.41
2022-10-22T13:03:51.344Z,100929.31
2022-10-22T13:06:18.996Z,100923.63
2022-10-22T13:09:13.280Z,100931.28
2022-10-22T13:11:48.994Z,100927.28
2022-10-22T13:14:38.361Z,100929.72
2022-10-22T13:17:14.968Z,100941.44
2022-10-22T13:19:50.747Z,100946.22
2022-10-22T13:22:32.429Z,100948.56
2022-10-22T13:25:04.943Z,100947.81
2022-10-22T13:27:32.731Z,100938.00
2022-10-22T13:30:03.153Z,100944.69
2022-10-22T13:32:36.892Z,100945.38
2022-10-22T13:35:05.047Z,100942.72
2022-10-22T13:37:34.414Z,100950.19
2022-10-22T13:40:02.265Z,100951.38
2022-10-22T13:42:29.993Z,100948.38
2022-10-22T13:44:57.672Z,100945.66
2022-10-22T13:47:29.277Z,100942.50
2022-10-22T13:50:00.909Z,100953.34
2022-10-22T13:52:38.703Z,100942.53
2022-10-22T13:55:25.860Z,100950.47
2022-10-22T13:58:00.051Z,100940.75
2022-10-22T14:00:29.995Z,100945.72
2022-10-22T14:02:59.231Z,100942.91
2022-10-22T14:05:27.531Z,100948.22
2022-10-22T14:07:55.408Z,100942.09
2022-10-22T14:10:24.949Z,100931.44
2022-10-22T14:12:53.762Z,100945.75
2022-10-22T14:15:29.461Z,100943.88
2022-10-22T14:17:59.163Z,100941.22
2022-10-22T14:20:29.374Z,100929.44
2022-10-22T14:23:05.404Z,100932.84
2022-10-22T14:25:33.182Z,100943.88
2022-10-22T14:28:01.926Z,100940.50
2022-10-22T14:30:30.434Z,100950.28
2022-10-22T14:32:58.156Z,100943.38
2022-10-22T14:35:26.030Z,100944.91
2022-10-22T14:37:54.144Z,100942.25
2022-10-22T14:40:21.920Z,100942.53
2022-10-22T14:42:49.811Z,100948.19
2022-10-22T14:45:26.019Z,100947.13
2022-10-22T14:47:57.601Z,100953.69
2022-10-22T14:50:25.455Z,100957.59
2022-10-22T14:52:53.184Z,100961.56
2022-10-22T14:55:21.325Z,100960.81
2022-10-22T14:57:49.048Z,100949.91
2022-10-22T15:00:18.742Z,100954.16
2022-10-22T15:02:47.471Z,100955.97
2022-10-22T15:05:15.851Z,100959.03
2022-10-22T15:07:44.973Z,100964.78
2022-10-22T15:10:12.757Z,100959.94
2022-10-22T15:12:40.633Z,100963.59
2022-10-22T15:15:19.365Z,100958.13
2022-10-22T15:17:50.238Z,100958.19
2022-10-22T15:20:18.051Z,100955.19
2022-10-22T15:22:45.819Z,100957.78
2022-10-22T15:25:14.249Z,100959.56
2022-10-22T15:27:41.999Z,100963.06
2022-10-22T15:30:09.930Z,100951.63
2022-10-22T15:32:37.630Z,100956.56
2022-10-22T15:35:06.056Z,100957.06
2022-10-22T15:37:33.985Z,100959.19
2022-10-22T15:40:03.857Z,100960.59
2022-10-22T15:42:31.628Z,100970.94
2022-10-22T15:44:59.829Z,100972.19
2022-10-22T15:47:29.755Z,100976.06
2022-10-22T15:49:57.691Z,100973.75
2022-10-22T15:52:25.608Z,100971.31
2022-10-22T15:54:53.424Z,100979.34
2022-10-22T15:57:21.259Z,100978.66
2022-10-22T15:59:50.251Z,100989.91
2022-10-22T16:02:18.994Z,100987.13
2022-10-22T16:04:46.783Z,101000.03
2022-10-22T16:07:15.826Z,100998.19
2022-10-22T16:09:43.501Z,101000.25
2022-10-22T16:12:12.259Z,100999.47
2022-10-22T16:14:42.383Z,100995.84
2022-10-22T16:17:10.219Z,101011.28
2022-10-22T16:19:37.980Z,101017.25
2022-10-22T16:22:05.702Z,101012.41
2022-10-22T16:24:33.562Z,101022.47
2022-10-22T16:27:01.451Z,101018.63
2022-10-22T16:29:29.175Z,101016.63
2022-10-22T16:31:56.936Z,101026.06
2022-10-22T16:34:27.320Z,101019.66
2022-10-22T16:36:57.039Z,101025.19
2022-10-22T16:39:25.022Z,101025.56
2022-10-22T16:41:52.735Z,101032.88
2022-10-22T16:44:21.171Z,101038.44
2022-10-22T16:46:53.092Z,101040.75
2022-10-22T16:49:21.631Z,101045.16
2022-10-22T16:51:49.866Z,101056.00
2022-10-22T16:54:18.633Z,101063.75
2022-10-22T16:56:46.529Z,101057.59
2022-10-22T16:59:14.389Z,101049.75
2022-10-22T17:01:42.241Z,101067.50
2022-10-22T17:04:10.250Z,101064.91
2022-10-22T17:06:38.061Z,101068.50
2022-10-22T17:09:06.015Z,101068.00
2022-10-22T17:11:37.028Z,101067.84
2022-10-22T17:14:07.096Z,101067.06
2022-10-22T17:16:34.844Z,101076.22
2022-10-22T17:19:05.529Z,101069.03
2022-10-22T17:21:34.182Z,101080.31
2022-10-22T17:24:02.072Z,101084.91
2022-10-22T17:26:33.280Z,101083.28
2022-10-22T17:29:01.079Z,101092.47
2022-10-22T17:31:38.386Z,101098.00
2022-10-22T17:34:08.610Z,101099.63
2022-10-22T17:36:37.959Z,101095.91
2022-10-22T17:39:07.742Z,101099.97
2022-10-22T17:41:37.140Z,101104.06
2022-10-22T17:44:09.140Z,101110.31
2022-10-22T17:46:38.596Z,101115.84
2022-10-22T17:49:13.468Z,101126.28
2022-10-22T17:51:41.402Z,101124.50
2022-10-22T17:54:10.145Z,101120.56
2022-10-22T17:56:40.425Z,101122.84
2022-10-22T17:59:09.850Z,101126.94
2022-10-22T18:01:40.531Z,101137.88
2022-10-22T18:04:08.955Z,101134.22
2022-10-22T18:06:37.738Z,101144.16
2022-10-22T18:09:11.473Z,101149.38
2022-10-22T18:11:41.278Z,101156.38
2022-10-22T18:14:09.020Z,101155.38
2022-10-22T18:16:36.880Z,101159.63
2022-10-22T18:19:05.520Z,101167.41
2022-10-22T18:21:33.287Z,101158.63
2022-10-22T18:24:01.006Z,101159.88
2022-10-22T18:26:28.945Z,101157.69
2022-10-22T18:28:59.819Z,101166.53
2022-10-22T18:31:28.588Z,101181.13
2022-10-22T18:33:57.491Z,101180.53
2022-10-22T18:36:26.973Z,101176.91
2022-10-22T18:39:00.405Z,101188.31
2022-10-22T18:41:29.878Z,101184.44
2022-10-22T18:43:59.802Z,101184.25
2022-10-22T18:46:28.952Z,101194.50
2022-10-22T18:48:57.690Z,101181.97
2022-10-22T18:51:30.699Z,101189.63
2022-10-22T18:54:05.650Z,101189.63
2022-10-22T18:56:46.033Z,101186.06
2022-10-22T18:59:18.240Z,101186.69
2022-10-22T19:01:46.183Z,101197.22
2022-10-22T19:04:14.440Z,101206.59
2022-10-22T19:06:45.311Z,101199.25
2022-10-22T19:09:15.625Z,101205.16
2022-10-22T19:11:46.618Z,101202.88
2022-10-22T19:14:19.637Z,101207.56
2022-10-22T19:16:47.447Z,101205.63
2022-10-22T19:19:18.768Z,101213.50
2022-10-22T19:21:47.139Z,101219.56
2022-10-22T19:24:17.139Z,101213.72
2022-10-22T19:26:45.951Z,101228.97
2022-10-22T19:29:18.824Z,101237.31
2022-10-22T19:31:47.662Z,101230.81
2022-10-22T19:34:15.466Z,101228.81
2022-10-22T19:36:43.347Z,101238.97
2022-10-22T19:39:11.260Z,101236.69
2022-10-22T19:41:39.118Z,101239.78
2022-10-22T19:44:06.938Z,101249.25
2022-10-22T19:46:34.727Z,101249.56
2022-10-22T19:49:03.791Z,101249.72
2022-10-22T19:51:33.995Z,101259.41
2022-10-22T19:54:09.243Z,101271.00
2022-10-22T19:56:37.877Z,101260.44
2022-10-22T19:59:06.152Z,101265.19
2022-10-22T20:01:34.035Z,101268.94
2022-10-22T20:04:01.969Z,101278.28
2022-10-22T20:06:30.815Z,101268.47
2022-10-22T20:08:59.015Z,101274.16
2022-10-22T20:11:29.542Z,101276.25
2022-10-22T20:13:58.087Z,101271.19
2022-10-22T20:16:30.054Z,101274.09
2022-10-22T20:19:02.916Z,101284.47
2022-10-22T20:21:31.120Z,101288.22
2022-10-22T20:23:59.696Z,101285.75
2022-10-22T20:26:28.778Z,101282.81
2022-10-22T20:28:57.086Z,101279.72
2022-10-22T20:31:27.205Z,101279.72
2022-10-22T20:33:59.613Z,101288.03
2022-10-22T20:36:29.320Z,101283.63
2022-10-22T20:39:05.503Z,101280.69
2022-10-22T20:41:38.030Z,101283.09
2022-10-22T20:44:06.273Z,101291.72
2022-10-22T20:46:34.828Z,101298.19
2022-10-22T20:49:06.274Z,101294.47
2022-10-22T20:51:36.395Z,101293.00
2022-10-22T20:54:05.616Z,101302.47
2022-10-22T20:56:34.542Z,101304.34
2022-10-22T20:59:05.953Z,101319.66
2022-10-22T21:01:37.348Z,101321.41
2022-10-22T21:04:06.406Z,101328.44
2022-10-22T21:06:41.470Z,101323.34
2022-10-22T21:09:11.791Z,101325.63
2022-10-22T21:11:41.284Z,101322.38
2022-10-22T21:14:11.104Z,101323.63
2022-10-22T21:16:43.759Z,101320.50
2022-10-22T21:19:11.863Z,101320.75
2022-10-22T21:21:43.060Z,101329.81
2022-10-22T21:24:11.264Z,101325.25
2022-10-22T21:26:40.955Z,101323.09
2022-10-22T21:29:12.336Z,101332.84
2022-10-22T21:31:40.638Z,101322.81
2022-10-22T21:34:08.541Z,101324.16
2022-10-22T21:36:36.321Z,101328.66
2022-10-22T21:39:04.288Z,101329.19
2022-10-22T21:41:32.011Z,101330.94
2022-10-22T21:43:59.866Z,101335.63
2022-10-22T21:46:28.388Z,101345.28
2022-10-22T21:49:00.001Z,101344.38
2022-10-22T21:51:29.536Z,101355.34
2022-10-22T21:53:57.913Z,101353.47
2022-10-22T21:56:28.711Z,101354.19
2022-10-22T21:58:56.525Z,101344.16
2022-10-22T22:01:24.563Z,101346.31
2022-10-22T22:03:52.701Z,101342.41
2022-10-22T22:06:23.446Z,101350.00
2022-10-22T22:08:55.177Z,101356.97
2022-10-22T22:11:26.572Z,101353.47
2022-10-22T22:13:55.622Z,101356.31
2022-10-22T22:16:28.446Z,101347.13
2022-10-22T22:19:05.636Z,101357.75
2022-10-22T22:21:34.848Z,101356.53
2022-10-22T22:24:02.621Z,101348.09
2022-10-22T22:26:30.760Z,101352.66
2022-10-22T22:28:59.843Z,101351.78
2022-10-22T22:31:33.267Z,101345.22
2022-10-22T22:34:03.815Z,101354.94
2022-10-22T22:36:40.245Z,101342.47
2022-10-22T22:39:11.721Z,101334.78
2022-10-22T22:41:39.962Z,101344.19
2022-10-22T22:44:07.779Z,101344.34
2022-10-22T22:46:36.393Z,101339.72
2022-10-22T22:49:04.851Z,101352.66
2022-10-22T22:51:32.894Z,101340.75
2022-10-22T22:54:01.703Z,101343.66
2022-10-22T22:56:31.861Z,101348.72
2022-10-22T22:58:59.863Z,101351.16
2022-10-22T23:01:30.705Z,101347.88
2022-10-22T23:04:01.412Z,101339.69
2022-10-22T23:06:33.260Z,101343.59
2022-10-22T23:09:01.271Z,101351.19
2022-10-22T23:11:29.146Z,101353.94
2022-10-22T23:13:59.904Z,101346.28
2022-10-22T23:16:30.477Z,101352.75
2022-10-22T23:18:59.011Z,101341.78
2022-10-22T23:21:32.669Z,101348.00
2022-10-22T23:24:03.116Z,101346.25
2022-10-22T23:26:37.227Z,101345.53
2022-10-22T23:29:06.248Z,101351.34
2022-10-22T23:31:34.289Z,101354.66
2022-10-22T23:34:02.365Z,101352.09
2022-10-22T23:36:30.115Z,101357.03
2022-10-22T23:38:57.886Z,101356.81
2022-10-22T23:41:25.685Z,101355.81
2022-10-22T23:43:53.435Z,101350.97
2022-10-22T23:46:21.171Z,101355.47
2022-10-22T23:48:49.347Z,101360.47
2022-10-22T23:51:17.541Z,101350.94
2022-10-22T23:53:46.174Z,101342.47
2022-10-22T23:56:17.743Z,101350.75
2022-10-22T23:58:45.807Z,101343.38
